createdAt,value
2022-10-02T00:00:53.699Z,96259.69
2022-10-02T00:03:27.850Z,96261.09
2022-10-02T00:06:05.252Z,96262.47
2022-10-02T00:08:37.731Z,96257.41
2022-10-02T00:11:13.372Z,96261.69
2022-10-02T00:13:48.312Z,96261.69
2022-10-02T00:16:24.176Z,96264.53
2022-10-02T00:18:53.872Z,96267.19
2022-10-02T00:21:33.803Z,96262.94
2022-10-02T00:24:03.751Z,96271.47
2022-10-02T00:26:39.774Z,96276.16
2022-10-02T00:29:26.053Z,96267.19
2022-10-02T00:32:08.585Z,96269.84
2022-10-02T00:34:52.056Z,96267.19
2022-10-02T00:37:32.719Z,96269.03
2022-10-02T00:40:22.629Z,96258.25
2022-10-02T00:43:07.115Z,96268.00
2022-10-02T00:46:01.974Z,96267.34
2022-10-02T00:48:51.090Z,96265.53
2022-10-02T00:51:37.026Z,96264.25
2022-10-02T00:54:25.964Z,96268.53
2022-10-02T00:57:05.703Z,96276.25
2022-10-02T00:59:52.601Z,96273.81
2022-10-02T01:02:51.408Z,96280.94
2022-10-02T01:05:21.114Z,96285.22
2022-10-02T01:07:53.029Z,96289.47
2022-10-02T01:10:21.483Z,96292.69
2022-10-02T01:12:49.603Z,96290.88
2022-10-02T01:15:20.353Z,96290.88
2022-10-02T01:17:51.892Z,96283.94
2022-10-02T01:20:24.921Z,96289.03
2022-10-02T01:23:02.742Z,96287.41
2022-10-02T01:25:31.341Z,96282.13
2022-10-02T01:27:58.774Z,96271.78
2022-10-02T01:30:26.205Z,96276.00
2022-10-02T01:32:58.006Z,96266.25
2022-10-02T01:35:30.202Z,96254.84
2022-10-02T01:38:00.128Z,96258.31
2022-10-02T01:40:30.281Z,96257.50
2022-10-02T01:43:03.281Z,96263.59
2022-10-02T01:45:57.372Z,96277.66
2022-10-02T01:48:45.163Z,96277.41
2022-10-02T01:52:02.508Z,96277.19
2022-10-02T01:54:44.420Z,96288.53
2022-10-02T01:57:24.781Z,96282.28
2022-10-02T02:00:05.200Z,96275.31
2022-10-02T02:02:45.940Z,96271.19
2022-10-02T02:05:29.983Z,96269.13
2022-10-02T02:08:08.321Z,96270.97
2022-10-02T02:10:43.942Z,96269.13
2022-10-02T02:13:18.981Z,96280.53
2022-10-02T02:15:54.902Z,96282.38
2022-10-02T02:18:29.309Z,96279.84
2022-10-02T02:21:03.200Z,96284.84
2022-10-02T02:23:36.241Z,96288.88
2022-10-02T02:26:09.720Z,96280.47
2022-10-02T02:28:43.149Z,96292.22
2022-10-02T02:31:18.076Z,96290.47
2022-10-02T02:33:51.420Z,96282.88
2022-10-02T02:36:25.274Z,96291.22
2022-10-02T02:38:58.908Z,96289.59
2022-10-02T02:41:30.901Z,96290.25
2022-10-02T02:44:04.368Z,96298.13
2022-10-02T02:46:39.662Z,96291.34
2022-10-02T02:49:11.980Z,96282.72
2022-10-02T02:51:43.263Z,96284.44
2022-10-02T02:54:16.860Z,96283.38
2022-10-02T02:56:47.188Z,96284.06
2022-10-02T02:59:16.462Z,96281.19
2022-10-02T03:01:45.016Z,96277.28
2022-10-02T03:04:14.240Z,96285.03
2022-10-02T03:06:44.463Z,96272.09
2022-10-02T03:09:16.741Z,96270.53
2022-10-02T03:11:54.220Z,96273.66
2022-10-02T03:14:54.881Z,96267.09
2022-10-02T03:17:36.969Z,96272.41
2022-10-02T03:20:14.462Z,96268.00
2022-10-02T03:22:54.241Z,96265.03
2022-10-02T03:25:28.970Z,96260.63
2022-10-02T03:28:07.433Z,96254.75
2022-10-02T03:30:38.224Z,96260.84
2022-10-02T03:33:11.041Z,96259.81
2022-10-02T03:35:39.342Z,96261.06
2022-10-02T03:38:11.041Z,96252.31
2022-10-02T03:40:38.081Z,96253.13
2022-10-02T03:43:05.442Z,96249.22
2022-10-02T03:45:50.510Z,96253.03
2022-10-02T03:48:20.302Z,96245.59
2022-10-02T03:50:48.802Z,96255.22
2022-10-02T03:53:19.761Z,96257.22
2022-10-02T03:55:53.030Z,96256.03
2022-10-02T03:58:20.183Z,96255.13
2022-10-02T04:00:56.930Z,96254.66
2022-10-02T04:03:30.795Z,96253.03
2022-10-02T04:06:05.323Z,96254.22
2022-10-02T04:08:40.983Z,96252.00
2022-10-02T04:11:16.189Z,96247.75
2022-10-02T04:13:49.003Z,96256.88
2022-10-02T04:16:23.984Z,96256.88
2022-10-02T04:18:59.786Z,96251.56
2022-10-02T04:21:36.930Z,96267.47
2022-10-02T04:24:14.501Z,96249.34
2022-10-02T04:26:51.227Z,96261.34
2022-10-02T04:29:25.964Z,96267.88
2022-10-02T04:32:01.571Z,96264.56
2022-10-02T04:34:30.182Z,96275.16
2022-10-02T04:37:20.763Z,96274.16
2022-10-02T04:40:13.807Z,96273.34
2022-10-02T04:42:57.241Z,96259.00
2022-10-02T04:45:48.336Z,96255.78
2022-10-02T04:48:39.823Z,96251.66
2022-10-02T04:51:27.186Z,96251.53
2022-10-02T04:54:27.980Z,96247.59
2022-10-02T04:57:20.080Z,96255.88
2022-10-02T05:00:08.791Z,96252.84
2022-10-02T05:03:04.812Z,96250.59
2022-10-02T05:05:55.030Z,96250.13
2022-10-02T05:08:41.601Z,96239.88
2022-10-02T05:11:32.074Z,96243.19
2022-10-02T05:14:17.843Z,96230.09
2022-10-02T05:17:07.424Z,96232.88
2022-10-02T05:19:59.092Z,96229.78
2022-10-02T05:22:46.210Z,96228.31
2022-10-02T05:25:42.025Z,96235.59
2022-10-02T05:28:34.091Z,96230.81
2022-10-02T05:31:18.116Z,96246.63
2022-10-02T05:34:02.245Z,96257.78
2022-10-02T05:36:49.685Z,96265.41
2022-10-02T05:39:26.383Z,96263.75
2022-10-02T05:42:08.344Z,96261.94
2022-10-02T05:44:41.844Z,96276.00
2022-10-02T05:47:15.369Z,96275.06
2022-10-02T05:49:51.623Z,96259.94
2022-10-02T05:52:24.001Z,96250.75
2022-10-02T05:54:58.205Z,96254.66
2022-10-02T05:57:34.463Z,96251.22
2022-10-02T06:00:17.342Z,96235.31
2022-10-02T06:02:55.763Z,96242.88
2022-10-02T06:05:41.382Z,96247.53
2022-10-02T06:08:15.469Z,96255.13
2022-10-02T06:10:48.861Z,96243.28
2022-10-02T06:13:25.249Z,96239.81
2022-10-02T06:16:03.077Z,96244.53
2022-10-02T06:18:36.161Z,96247.41
2022-10-02T06:21:10.208Z,96259.28
2022-10-02T06:23:43.722Z,96255.81
2022-10-02T06:26:17.899Z,96244.19
2022-10-02T06:28:55.022Z,96255.63
2022-10-02T06:31:36.205Z,96253.22
2022-10-02T06:34:03.581Z,96255.06
2022-10-02T06:36:58.679Z,96256.06
2022-10-02T06:39:47.019Z,96266.59
2022-10-02T06:42:29.819Z,96263.31
2022-10-02T06:45:13.239Z,96260.06
2022-10-02T06:47:59.240Z,96267.84
2022-10-02T06:50:41.740Z,96269.25
2022-10-02T06:53:24.005Z,96262.44
2022-10-02T06:56:02.542Z,96263.00
2022-10-02T06:58:53.740Z,96263.59
2022-10-02T07:01:39.408Z,96275.78
2022-10-02T07:04:23.757Z,96280.50
2022-10-02T07:07:07.017Z,96286.81
2022-10-02T07:09:58.762Z,96279.44
2022-10-02T07:12:55.717Z,96279.63
2022-10-02T07:15:47.078Z,96279.44
2022-10-02T07:18:31.060Z,96275.16
2022-10-02T07:21:08.841Z,96286.34
2022-10-02T07:24:01.412Z,96281.84
2022-10-02T07:26:41.899Z,96284.31
2022-10-02T07:29:28.518Z,96283.91
2022-10-02T07:32:35.560Z,96273.31
2022-10-02T07:35:25.240Z,96274.78
2022-10-02T07:38:14.999Z,96277.00
2022-10-02T07:40:59.791Z,96283.69
2022-10-02T07:43:42.460Z,96283.25
2022-10-02T07:46:19.579Z,96285.31
2022-10-02T07:49:16.898Z,96271.59
2022-10-02T07:51:58.039Z,96281.97
2022-10-02T07:54:58.507Z,96288.09
2022-10-02T07:57:36.582Z,96282.19
2022-10-02T08:00:11.168Z,96284.97
2022-10-02T08:02:47.452Z,96278.75
2022-10-02T08:05:19.788Z,96277.75
2022-10-02T08:07:52.265Z,96287.75
2022-10-02T08:10:26.829Z,96294.56
2022-10-02T08:13:03.264Z,96296.41
2022-10-02T08:15:36.346Z,96307.38
2022-10-02T08:18:33.054Z,96306.22
2022-10-02T08:21:03.064Z,96302.22
2022-10-02T08:23:39.386Z,96295.44
2022-10-02T08:26:15.705Z,96287.41
2022-10-02T08:28:51.653Z,96292.47
2022-10-02T08:31:18.860Z,96299.97
2022-10-02T08:33:46.003Z,96298.63
2022-10-02T08:36:38.406Z,96291.09
2022-10-02T08:39:26.828Z,96285.97
2022-10-02T08:42:35.965Z,96285.28
2022-10-02T08:45:37.554Z,96276.66
2022-10-02T08:48:38.345Z,96270.19
2022-10-02T08:51:42.429Z,96270.63
2022-10-02T08:54:51.647Z,96279.50
2022-10-02T08:57:51.367Z,96286.75
2022-10-02T09:00:24.926Z,96280.56
2022-10-02T09:03:21.565Z,96286.63
2022-10-02T09:06:39.274Z,96285.84
2022-10-02T09:09:50.406Z,96288.03
2022-10-02T09:12:52.612Z,96283.06
2022-10-02T09:15:35.226Z,96279.16
2022-10-02T09:18:17.666Z,96282.63
2022-10-02T09:21:25.897Z,96282.16
2022-10-02T09:24:34.020Z,96281.81
2022-10-02T09:27:52.916Z,96280.09
2022-10-02T09:30:51.686Z,96285.06
2022-10-02T09:34:00.166Z,96285.53
2022-10-02T09:37:08.344Z,96288.47
2022-10-02T09:40:20.526Z,96286.47
2022-10-02T09:43:21.408Z,96276.66
2022-10-02T09:46:17.356Z,96279.31
2022-10-02T09:49:32.327Z,96284.44
2022-10-02T09:52:39.336Z,96289.28
2022-10-02T09:55:44.558Z,96282.84
2022-10-02T09:58:44.547Z,96278.16
2022-10-02T10:01:33.968Z,96275.41
2022-10-02T10:04:47.628Z,96275.53
2022-10-02T10:07:55.327Z,96271.41
2022-10-02T10:10:47.686Z,96261.91
2022-10-02T10:14:03.166Z,96264.03
2022-10-02T10:17:10.745Z,96263.41
2022-10-02T10:20:16.985Z,96269.19
2022-10-02T10:23:14.625Z,96262.41
2022-10-02T10:26:13.789Z,96255.09
2022-10-02T10:29:16.146Z,96253.97
2022-10-02T10:32:15.644Z,96256.56
2022-10-02T10:35:23.457Z,96261.59
2022-10-02T10:37:57.073Z,96253.38
2022-10-02T10:40:43.046Z,96256.00
2022-10-02T10:43:45.527Z,96244.38
2022-10-02T10:46:52.206Z,96247.22
2022-10-02T10:49:50.909Z,96240.03
2022-10-02T10:52:38.206Z,96248.88
2022-10-02T10:55:18.447Z,96239.50
2022-10-02T10:58:04.194Z,96236.41
2022-10-02T11:00:48.145Z,96236.66
2022-10-02T11:03:45.327Z,96245.84
2022-10-02T11:06:46.225Z,96246.94
2022-10-02T11:09:58.504Z,96244.59
2022-10-02T11:12:57.546Z,96242.78
2022-10-02T11:15:51.387Z,96242.91
2022-10-02T11:18:58.586Z,96245.00
2022-10-02T11:22:10.872Z,96254.09
2022-10-02T11:25:01.148Z,96252.00
2022-10-02T11:28:06.357Z,96255.81
2022-10-02T11:30:47.625Z,96241.84
2022-10-02T11:33:53.064Z,96238.66
2022-10-02T11:36:43.408Z,96242.94
2022-10-02T11:39:22.209Z,96228.72
2022-10-02T11:42:33.819Z,96236.88
2022-10-02T11:45:34.058Z,96229.00
2022-10-02T11:48:18.710Z,96236.78
2022-10-02T11:51:21.270Z,96226.94
2022-10-02T11:54:07.327Z,96217.91
2022-10-02T11:56:49.947Z,96220.56
2022-10-02T12:00:01.327Z,96215.56
2022-10-02T12:02:38.017Z,96218.69
2022-10-02T12:05:29.787Z,96207.16
2022-10-02T12:08:08.188Z,96202.59
2022-10-02T12:10:51.088Z,96198.88
2022-10-02T12:13:48.385Z,96191.13
2022-10-02T12:16:29.280Z,96182.03
2022-10-02T12:19:19.632Z,96192.47
2022-10-02T12:22:03.627Z,96183.06
2022-10-02T12:24:44.466Z,96178.22
2022-10-02T12:27:23.386Z,96188.94
2022-10-02T12:30:13.147Z,96171.53
2022-10-02T12:33:00.908Z,96176.94
2022-10-02T12:35:56.986Z,96167.44
2022-10-02T12:38:38.506Z,96163.69
2022-10-02T12:41:22.746Z,96164.94
2022-10-02T12:44:11.547Z,96165.91
2022-10-02T12:47:16.186Z,96174.53
2022-10-02T12:49:57.947Z,96163.97
2022-10-02T12:53:35.566Z,96162.06
2022-10-02T12:56:25.206Z,96169.66
2022-10-02T12:59:05.751Z,96177.66
2022-10-02T13:02:14.104Z,96172.41
2022-10-02T13:05:16.585Z,96170.00
2022-10-02T13:08:24.027Z,96166.03
2022-10-02T13:11:08.348Z,96160.03
2022-10-02T13:14:03.466Z,96165.69
2022-10-02T13:16:56.986Z,96171.50
2022-10-02T13:19:40.085Z,96171.22
2022-10-02T13:22:17.165Z,96171.22
2022-10-02T13:25:17.725Z,96168.03
2022-10-02T13:27:55.679Z,96162.66
2022-10-02T13:30:23.786Z,96177.69
2022-10-02T13:33:11.067Z,96169.16
2022-10-02T13:35:56.895Z,96175.91
2022-10-02T13:38:59.086Z,96179.38
2022-10-02T13:41:47.026Z,96178.88
2022-10-02T13:44:26.124Z,96173.84
2022-10-02T13:47:21.224Z,96171.19
2022-10-02T13:50:15.327Z,96169.31
2022-10-02T13:53:04.829Z,96171.97
2022-10-02T13:55:43.268Z,96168.22
2022-10-02T13:58:48.177Z,96160.38
2022-10-02T14:01:30.702Z,96150.81
2022-10-02T14:04:17.947Z,96166.16
2022-10-02T14:06:52.946Z,96159.59
2022-10-02T14:09:46.927Z,96152.13
2022-10-02T14:12:29.012Z,96158.56
2022-10-02T14:15:31.328Z,96161.47
2022-10-02T14:18:36.749Z,96163.09
2022-10-02T14:21:17.406Z,96159.47
2022-10-02T14:24:06.082Z,96160.28
2022-10-02T14:26:52.866Z,96157.19
2022-10-02T14:29:36.129Z,96156.72
2022-10-02T14:32:25.249Z,96158.38
2022-10-02T14:35:23.736Z,96151.59
2022-10-02T14:38:16.566Z,96153.06
2022-10-02T14:40:54.041Z,96154.75
2022-10-02T14:44:02.849Z,96146.34
2022-10-02T14:46:58.634Z,96155.72
2022-10-02T14:49:44.789Z,96147.00
2022-10-02T14:52:41.367Z,96130.34
2022-10-02T14:55:29.986Z,96143.16
2022-10-02T14:58:28.768Z,96152.72
2022-10-02T15:01:16.824Z,96147.06
2022-10-02T15:04:25.666Z,96149.63
2022-10-02T15:07:02.847Z,96154.00
2022-10-02T15:09:40.189Z,96149.84
2022-10-02T15:12:17.130Z,96153.22
2022-10-02T15:14:59.178Z,96158.13
2022-10-02T15:17:39.368Z,96150.66
2022-10-02T15:20:20.510Z,96157.00
2022-10-02T15:22:57.447Z,96157.63
2022-10-02T15:25:41.394Z,96165.47
2022-10-02T15:28:35.852Z,96165.91
2022-10-02T15:31:16.597Z,96164.88
2022-10-02T15:33:58.568Z,96158.66
2022-10-02T15:36:50.588Z,96146.25
2022-10-02T15:39:48.789Z,96146.88
2022-10-02T15:42:40.768Z,96144.41
2022-10-02T15:45:23.452Z,96149.75
2022-10-02T15:48:15.410Z,96158.78
2022-10-02T15:50:52.866Z,96155.94
2022-10-02T15:53:47.106Z,96149.22
2022-10-02T15:56:43.054Z,96159.94
2022-10-02T15:59:30.840Z,96150.91
2022-10-02T16:02:14.436Z,96156.63
2022-10-02T16:04:57.328Z,96154.81
2022-10-02T16:07:45.957Z,96157.72
2022-10-02T16:10:24.827Z,96163.31
2022-10-02T16:13:16.627Z,96169.16
2022-10-02T16:15:51.788Z,96172.03
2022-10-02T16:18:44.467Z,96165.50
2022-10-02T16:21:39.009Z,96174.25
2022-10-02T16:24:36.385Z,96185.84
2022-10-02T16:27:28.227Z,96183.19
2022-10-02T16:30:08.728Z,96177.56
2022-10-02T16:33:00.567Z,96180.78
2022-10-02T16:36:05.786Z,96180.81
2022-10-02T16:38:49.949Z,96180.72
2022-10-02T16:41:32.726Z,96177.50
2022-10-02T16:44:27.409Z,96178.91
2022-10-02T16:47:07.005Z,96182.25
2022-10-02T16:49:50.005Z,96173.84
2022-10-02T16:52:23.587Z,96182.59
2022-10-02T16:55:00.824Z,96188.13
2022-10-02T16:57:49.346Z,96189.13
2022-10-02T17:00:24.066Z,96194.66
2022-10-02T17:03:02.047Z,96203.63
2022-10-02T17:05:40.906Z,96206.78
2022-10-02T17:08:18.444Z,96204.53
2022-10-02T17:11:06.605Z,96210.06
2022-10-02T17:13:49.847Z,96218.00
2022-10-02T17:16:25.715Z,96215.53
2022-10-02T17:18:56.848Z,96221.88
2022-10-02T17:21:31.308Z,96218.09
2022-10-02T17:24:33.066Z,96220.13
2022-10-02T17:27:17.035Z,96232.31
2022-10-02T17:29:56.824Z,96240.59
2022-10-02T17:32:48.289Z,96236.31
2022-10-02T17:35:28.266Z,96245.84
2022-10-02T17:38:24.669Z,96249.25
2022-10-02T17:41:09.485Z,96253.44
2022-10-02T17:43:50.147Z,96247.00
2022-10-02T17:46:37.846Z,96252.88
2022-10-02T17:49:21.466Z,96262.16
2022-10-02T17:52:03.324Z,96256.84
2022-10-02T17:54:47.677Z,96257.88
2022-10-02T17:57:38.968Z,96250.94
2022-10-02T18:00:16.191Z,96254.66
2022-10-02T18:03:12.887Z,96259.19
2022-10-02T18:05:54.592Z,96264.97
2022-10-02T18:08:46.846Z,96264.97
2022-10-02T18:11:35.592Z,96269.41
2022-10-02T18:14:18.850Z,96277.09
2022-10-02T18:17:07.648Z,96272.47
2022-10-02T18:19:55.085Z,96266.03
2022-10-02T18:22:50.726Z,96264.50
2022-10-02T18:25:38.025Z,96259.44
2022-10-02T18:28:28.459Z,96256.19
2022-10-02T18:31:13.875Z,96258.59
2022-10-02T18:34:04.345Z,96260.72
2022-10-02T18:36:48.587Z,96264.66
2022-10-02T18:39:24.049Z,96268.84
2022-10-02T18:42:21.790Z,96274.16
2022-10-02T18:45:02.575Z,96275.78
2022-10-02T18:47:46.827Z,96276.41
2022-10-02T18:50:34.291Z,96265.41
2022-10-02T18:53:27.511Z,96266.56
2022-10-02T18:56:07.037Z,96266.25
2022-10-02T18:58:52.026Z,96270.66
2022-10-02T19:01:51.466Z,96277.50
2022-10-02T19:04:49.789Z,96278.13
2022-10-02T19:07:22.726Z,96274.00
2022-10-02T19:10:18.746Z,96278.09
2022-10-02T19:12:45.886Z,96279.03
2022-10-02T19:15:23.145Z,96277.66
2022-10-02T19:18:02.150Z,96283.78
2022-10-02T19:20:52.009Z,96279.78
2022-10-02T19:23:28.846Z,96284.28
2022-10-02T19:26:01.586Z,96281.38
2022-10-02T19:28:32.917Z,96283.69
2022-10-02T19:31:06.645Z,96281.50
2022-10-02T19:33:42.192Z,96280.47
2022-10-02T19:36:18.685Z,96283.00
2022-10-02T19:38:53.555Z,96277.69
2022-10-02T19:41:22.048Z,96275.53
2022-10-02T19:43:56.066Z,96271.25
2022-10-02T19:46:36.765Z,96275.84
2022-10-02T19:49:08.710Z,96274.09
2022-10-02T19:51:44.368Z,96271.22
2022-10-02T19:54:17.626Z,96269.84
2022-10-02T19:56:46.233Z,96271.69
2022-10-02T19:59:18.687Z,96271.69
2022-10-02T20:01:51.354Z,96269.03
2022-10-02T20:04:21.165Z,96265.34
2022-10-02T20:06:53.099Z,96272.50
2022-10-02T20:09:28.471Z,96259.66
2022-10-02T20:12:02.265Z,96268.94
2022-10-02T20:14:38.748Z,96267.56
2022-10-02T20:17:10.863Z,96270.78
2022-10-02T20:19:43.646Z,96269.97
2022-10-02T20:22:22.466Z,96265.47
2022-10-02T20:24:56.565Z,96262.13
2022-10-02T20:27:35.190Z,96255.34
2022-10-02T20:30:11.204Z,96255.22
2022-10-02T20:32:47.245Z,96254.31
2022-10-02T20:35:20.605Z,96251.06
2022-10-02T20:37:51.944Z,96247.28
2022-10-02T20:40:25.684Z,96254.34
2022-10-02T20:43:02.030Z,96250.78
2022-10-02T20:45:39.473Z,96257.03
2022-10-02T20:49:03.196Z,96259.34
2022-10-02T20:51:53.817Z,96271.81
2022-10-02T20:54:42.424Z,96268.56
2022-10-02T20:58:00.614Z,96278.75
2022-10-02T21:00:43.065Z,96276.53
2022-10-02T21:03:31.087Z,96271.47
2022-10-02T21:06:27.724Z,96276.22
2022-10-02T21:09:26.628Z,96272.16
2022-10-02T21:12:29.736Z,96271.59
2022-10-02T21:15:24.244Z,96263.53
2022-10-02T21:18:29.886Z,96267.69
2022-10-02T21:21:41.545Z,96275.75
2022-10-02T21:24:38.144Z,96272.06
2022-10-02T21:27:35.305Z,96274.72
2022-10-02T21:30:14.592Z,96277.38
2022-10-02T21:33:01.306Z,96274.28
2022-10-02T21:35:39.867Z,96281.75
2022-10-02T21:39:04.588Z,96279.09
2022-10-02T21:42:13.207Z,96274.94
2022-10-02T21:45:22.025Z,96275.59
2022-10-02T21:48:47.128Z,96284.28
2022-10-02T21:51:59.870Z,96280.69
2022-10-02T21:55:10.827Z,96284.16
2022-10-02T21:58:27.166Z,96276.66
2022-10-02T22:01:24.404Z,96271.78
2022-10-02T22:04:21.464Z,96277.09
2022-10-02T22:06:59.550Z,96269.16
2022-10-02T22:09:44.926Z,96275.03
2022-10-02T22:12:32.564Z,96267.06
2022-10-02T22:15:13.091Z,96271.56
2022-10-02T22:17:55.385Z,96274.34
2022-10-02T22:21:09.540Z,96266.63
2022-10-02T22:24:01.548Z,96275.25
2022-10-02T22:26:45.485Z,96275.72
2022-10-02T22:29:19.786Z,96286.78
2022-10-02T22:32:03.109Z,96289.44
2022-10-02T22:34:44.027Z,96285.16
2022-10-02T22:37:33.890Z,96281.16
2022-10-02T22:40:07.946Z,96286.44
2022-10-02T22:42:42.566Z,96284.03
2022-10-02T22:45:20.505Z,96281.38
2022-10-02T22:47:57.725Z,96289.34
2022-10-02T22:50:33.865Z,96300.53
2022-10-02T22:53:12.650Z,96290.13
2022-10-02T22:55:50.498Z,96290.47
2022-10-02T22:58:29.533Z,96297.41
2022-10-02T23:01:08.305Z,96299.00
2022-10-02T23:03:45.405Z,96301.22
2022-10-02T23:06:25.387Z,96307.09
2022-10-02T23:09:03.486Z,96314.00
2022-10-02T23:11:42.131Z,96308.94
2022-10-02T23:14:20.186Z,96310.31
2022-10-02T23:16:55.389Z,96311.72
2022-10-02T23:19:30.108Z,96311.94
2022-10-02T23:22:06.146Z,96314.38
2022-10-02T23:24:45.248Z,96313.56
2022-10-02T23:27:18.586Z,96320.25
2022-10-02T23:29:56.104Z,96312.50
2022-10-02T23:32:30.485Z,96307.44
2022-10-02T23:35:06.326Z,96308.69
2022-10-02T23:37:44.744Z,96304.19
2022-10-02T23:40:24.264Z,96297.28
2022-10-02T23:42:57.704Z,96299.13
2022-10-02T23:45:33.887Z,96292.34
2022-10-02T23:48:05.665Z,96288.88
2022-10-02T23:50:50.823Z,96291.19
2022-10-02T23:53:49.805Z,96287.59
2022-10-02T23:56:39.603Z,96294.75
2022-10-02T23:59:31.006Z,96286.78
